Time,TemperatureF,DewpointF,PressureIn,WindDirection,WindDirectionDegrees,WindSpeedMPH,WindSpeedGustMPH,Humidity,HourlyPrecipIn,Conditions,Clouds,dailyrainin,SoftwareType,DateUTC
2013-08-01 00:02:00,75.0,56.0,30.26,ESE,106,3.0,4.0,51,0.00,,,0.00,,2013-08-01 05:02:00,
2013-08-01 00:13:00,75.0,56.0,30.26,ESE,106,3.0,4.0,51,0.00,,,0.00,,2013-08-01 05:13:00,
2013-08-01 00:23:00,75.0,56.0,30.27,ENE,76,0.0,5.0,52,0.00,,,0.00,,2013-08-01 05:23:00,
2013-08-01 00:32:00,75.0,56.0,30.27,ENE,76,0.0,5.0,52,0.00,,,0.00,,2013-08-01 05:32:00,
2013-08-01 00:43:00,75.0,56.0,30.27,ENE,76,0.0,5.0,52,0.00,,,0.00,,2013-08-01 05:43:00,
2013-08-01 00:53:00,75.0,56.0,30.27,East,93,0.0,2.0,52,0.00,,,0.00,,2013-08-01 05:53:00,
2013-08-01 01:02:00,75.0,56.0,30.27,East,93,0.0,2.0,52,0.00,,,0.00,,2013-08-01 06:02:00,
2013-08-01 01:12:00,75.0,56.0,30.27,East,93,0.0,2.0,52,0.00,,,0.00,,2013-08-01 06:12:00,
2013-08-01 01:22:00,74.0,55.0,30.27,NE,55,0.0,3.0,52,0.00,,,0.00,,2013-08-01 06:22:00,
2013-08-01 01:32:00,74.0,55.0,30.27,NE,55,0.0,3.0,52,0.00,,,0.00,,2013-08-01 06:32:00,
2013-08-01 01:43:00,74.0,55.0,30.27,NE,55,0.0,3.0,52,0.00,,,0.00,,2013-08-01 06:43:00,
2013-08-01 01:53:00,74.0,55.0,30.27,East,101,1.0,7.0,52,0.00,,,0.00,,2013-08-01 06:53:00,
2013-08-01 02:02:00,74.0,55.0,30.27,East,101,1.0,7.0,52,0.00,,,0.00,,2013-08-01 07:02:00,
2013-08-01 02:12:00,74.0,55.0,30.27,East,101,1.0,7.0,52,0.00,,,0.00,,2013-08-01 07:12:00,
2013-08-01 02:23:00,73.0,54.0,30.27,ESE,121,0.0,5.0,52,0.00,,,0.00,,2013-08-01 07:23:00,
2013-08-01 02:32:00,73.0,54.0,30.27,ESE,121,0.0,5.0,52,0.00,,,0.00,,2013-08-01 07:32:00,
2013-08-01 02:43:00,73.0,54.0,30.27,ESE,121,0.0,5.0,52,0.00,,,0.00,,2013-08-01 07:43:00,
2013-08-01 02:55:00,73.0,54.0,30.27,ENE,76,0.0,6.0,52,0.00,,,0.00,,2013-08-01 07:55:00,
2013-08-01 03:03:00,73.0,54.0,30.27,ENE,76,0.0,6.0,52,0.00,,,0.00,,2013-08-01 08:03:00,
2013-08-01 03:15:00,73.0,54.0,30.27,ENE,76,0.0,6.0,52,0.00,,,0.00,,2013-08-01 08:15:00,
2013-08-01 03:24:00,72.0,54.0,30.26,ESE,103,1.0,3.0,54,0.00,,,0.00,,2013-08-01 08:24:00,
2013-08-01 03:36:00,72.0,54.0,30.26,ESE,103,1.0,3.0,54,0.00,,,0.00,,2013-08-01 08:36:00,
2013-08-01 03:48:00,72.0,54.0,30.26,ESE,103,1.0,3.0,54,0.00,,,0.00,,2013-08-01 08:48:00,
2013-08-01 04:11:00,71.0,54.0,30.26,ESE,103,0.0,1.0,56,0.00,,,0.00,,2013-08-01 09:11:00,
2013-08-01 04:19:00,71.0,54.0,30.26,ESE,103,0.0,1.0,56,0.00,,,0.00,,2013-08-01 09:19:00,
2013-08-01 04:30:00,70.0,55.0,30.26,ESE,102,0.0,0.0,59,0.00,,,0.00,,2013-08-01 09:30:00,
2013-08-01 04:38:00,70.0,55.0,30.26,ESE,102,0.0,0.0,59,0.00,,,0.00,,2013-08-01 09:38:00,
2013-08-01 04:58:00,70.0,55.0,30.26,ESE,102,0.0,0.0,59,0.00,,,0.00,,2013-08-01 09:58:00,
2013-08-01 05:08:00,69.0,55.0,30.26,ESE,102,0.0,0.0,60,0.00,,,0.00,,2013-08-01 10:08:00,
2013-08-01 05:20:00,69.0,55.0,30.26,ESE,102,0.0,0.0,60,0.00,,,0.00,,2013-08-01 10:20:00,
2013-08-01 05:39:00,68.0,55.0,30.25,North,355,0.0,1.0,63,0.00,,,0.00,,2013-08-01 10:39:00,
2013-08-01 06:06:00,66.0,54.0,30.25,North,355,0.0,1.0,66,0.00,,,0.00,,2013-08-01 11:06:00,
2013-08-01 06:18:00,66.0,54.0,30.25,North,355,0.0,1.0,66,0.00,,,0.00,,2013-08-01 11:18:00,
2013-08-01 06:49:00,67.0,55.0,30.25,NNW,330,0.0,1.0,65,0.00,,,0.00,,2013-08-01 11:49:00,
2013-08-01 07:19:00,66.0,55.0,30.25,NNW,330,0.0,0.0,67,0.00,,,0.00,,2013-08-01 12:19:00,
2013-08-01 07:30:00,65.0,55.0,30.25,NNW,330,0.0,2.0,69,0.00,,,0.00,,2013-08-01 12:30:00,
2013-08-01 07:53:00,65.0,55.0,30.25,NNW,330,0.0,2.0,69,0.00,,,0.00,,2013-08-01 12:53:00,
2013-08-01 08:09:00,66.0,56.0,30.27,NNW,330,0.0,1.0,70,0.00,,,0.00,,2013-08-01 13:09:00,
2013-08-01 08:19:00,66.0,56.0,30.27,NNW,330,0.0,1.0,70,0.00,,,0.00,,2013-08-01 13:19:00,
2013-08-01 08:29:00,66.0,56.0,30.27,NNW,330,0.0,0.0,70,0.00,,,0.00,,2013-08-01 13:29:00,
2013-08-01 08:38:00,66.0,56.0,30.27,NNW,330,0.0,0.0,70,0.00,,,0.00,,2013-08-01 13:38:00,
2013-08-01 08:55:00,66.0,56.0,30.27,NNW,330,0.0,0.0,70,0.00,,,0.00,,2013-08-01 13:55:00,
2013-08-01 10:09:00,76.0,59.0,30.27,ESE,111,0.0,0.0,55,0.00,,,0.00,,2013-08-01 15:09:00,
2013-08-01 10:19:00,76.0,59.0,30.27,ESE,111,0.0,0.0,55,0.00,,,0.00,,2013-08-01 15:19:00,
2013-08-01 10:37:00,79.0,56.0,30.27,East,82,0.0,3.0,46,0.00,,,0.00,,2013-08-01 15:37:00,
2013-08-01 11:16:00,81.0,56.0,30.27,ENE,74,1.0,4.0,42,0.00,,,0.00,,2013-08-01 16:16:00,
2013-08-01 11:27:00,83.0,54.0,30.27,East,100,2.0,9.0,37,0.00,,,0.00,,2013-08-01 16:27:00,
2013-08-01 11:37:00,83.0,54.0,30.27,East,100,2.0,9.0,37,0.00,,,0.00,,2013-08-01 16:37:00,
2013-08-01 11:53:00,83.0,54.0,30.27,East,100,2.0,9.0,37,0.00,,,0.00,,2013-08-01 16:53:00,
2013-08-01 12:09:00,84.0,54.0,30.27,East,100,6.0,14.0,36,0.00,,,0.00,,2013-08-01 17:09:00,
2013-08-01 12:18:00,84.0,54.0,30.27,East,100,6.0,14.0,36,0.00,,,0.00,,2013-08-01 17:18:00,
2013-08-01 12:30:00,85.0,54.0,30.27,SE,146,3.0,7.0,35,0.00,,,0.00,,2013-08-01 17:30:00,
2013-08-01 12:58:00,85.0,54.0,30.27,SE,146,3.0,7.0,35,0.00,,,0.00,,2013-08-01 17:58:00,
2013-08-01 13:08:00,88.0,48.0,30.26,ESE,117,8.0,14.0,25,0.00,,,0.00,,2013-08-01 18:08:00,
2013-08-01 13:18:00,88.0,48.0,30.26,ESE,117,8.0,14.0,25,0.00,,,0.00,,2013-08-01 18:18:00,
2013-08-01 13:30:00,88.0,47.0,30.26,SW,227,4.0,13.0,24,0.00,,,0.00,,2013-08-01 18:30:00,
2013-08-01 13:37:00,88.0,47.0,30.26,SW,227,4.0,13.0,24,0.00,,,0.00,,2013-08-01 18:37:00,
2013-08-01 13:55:00,88.0,47.0,30.26,SW,227,4.0,13.0,24,0.00,,,0.00,,2013-08-01 18:55:00,
2013-08-01 14:29:00,90.0,51.0,30.24,ESE,111,8.0,14.0,27,0.00,,,0.00,,2013-08-01 19:29:00,
2013-08-01 14:36:00,90.0,51.0,30.24,ESE,111,8.0,14.0,27,0.00,,,0.00,,2013-08-01 19:36:00,
2013-08-01 14:59:00,90.0,51.0,30.24,ESE,111,8.0,14.0,27,0.00,,,0.00,,2013-08-01 19:59:00,
2013-08-01 15:18:00,90.0,50.0,30.24,SE,146,4.0,10.0,26,0.00,,,0.00,,2013-08-01 20:18:00,
2013-08-01 15:25:00,92.0,50.0,30.23,ESE,113,7.0,16.0,24,0.00,,,0.00,,2013-08-01 20:25:00,
2013-08-01 15:35:00,92.0,50.0,30.23,ESE,113,7.0,16.0,24,0.00,,,0.00,,2013-08-01 20:35:00,
2013-08-01 15:52:00,92.0,50.0,30.23,ESE,113,7.0,16.0,24,0.00,,,0.00,,2013-08-01 20:52:00,
2013-08-01 15:58:00,91.0,48.0,30.22,South,188,8.0,17.0,23,0.00,,,0.00,,2013-08-01 20:58:00,
2013-08-01 16:03:00,91.0,48.0,30.22,South,188,8.0,17.0,23,0.00,,,0.00,,2013-08-01 21:03:00,
2013-08-01 16:14:00,91.0,48.0,30.22,South,188,8.0,17.0,23,0.00,,,0.00,,2013-08-01 21:14:00,
2013-08-01 16:25:00,92.0,49.0,30.21,East,80,4.0,15.0,23,0.00,,,0.00,,2013-08-01 21:25:00,
2013-08-01 16:34:00,92.0,49.0,30.21,East,80,4.0,15.0,23,0.00,,,0.00,,2013-08-01 21:34:00,
2013-08-01 16:43:00,92.0,49.0,30.21,East,80,4.0,15.0,23,0.00,,,0.00,,2013-08-01 21:43:00,
2013-08-01 16:53:00,93.0,47.0,30.19,SSW,192,4.0,13.0,21,0.00,,,0.00,,2013-08-01 21:53:00,
2013-08-01 17:05:00,93.0,47.0,30.19,SSW,192,4.0,13.0,21,0.00,,,0.00,,2013-08-01 22:05:00,
2013-08-01 17:16:00,93.0,47.0,30.19,SSW,192,4.0,13.0,21,0.00,,,0.00,,2013-08-01 22:16:00,
2013-08-01 17:23:00,92.0,48.0,30.19,ESE,117,7.0,11.0,22,0.00,,,0.00,,2013-08-01 22:23:00,
2013-08-01 17:35:00,92.0,48.0,30.19,ESE,117,7.0,11.0,22,0.00,,,0.00,,2013-08-01 22:35:00,
2013-08-01 17:47:00,92.0,48.0,30.19,ESE,117,7.0,11.0,22,0.00,,,0.00,,2013-08-01 22:47:00,
2013-08-01 17:58:00,91.0,48.0,30.17,SW,215,3.0,13.0,23,0.00,,,0.00,,2013-08-01 22:58:00,
2013-08-01 18:06:00,91.0,48.0,30.17,SW,215,3.0,13.0,23,0.00,,,0.00,,2013-08-01 23:06:00,
2013-08-01 18:15:00,91.0,48.0,30.17,SW,215,3.0,13.0,23,0.00,,,0.00,,2013-08-01 23:15:00,
2013-08-01 18:25:00,91.0,48.0,30.16,SE,126,7.0,13.0,23,0.00,,,0.00,,2013-08-01 23:25:00,
2013-08-01 18:32:00,91.0,48.0,30.16,SE,126,7.0,13.0,23,0.00,,,0.00,,2013-08-01 23:32:00,
2013-08-01 19:00:00,91.0,49.0,30.16,SSE,147,8.0,14.0,24,0.00,,,0.00,,2013-08-02 00:00:00,
2013-08-01 19:06:00,91.0,49.0,30.16,SSE,147,8.0,14.0,24,0.00,,,0.00,,2013-08-02 00:06:00,
2013-08-01 19:17:00,91.0,49.0,30.16,SSE,147,8.0,14.0,24,0.00,,,0.00,,2013-08-02 00:17:00,
2013-08-01 19:26:00,90.0,49.0,30.16,SW,221,6.0,12.0,25,0.00,,,0.00,,2013-08-02 00:26:00,
2013-08-01 19:35:00,90.0,49.0,30.16,SW,221,6.0,12.0,25,0.00,,,0.00,,2013-08-02 00:35:00,
2013-08-01 19:52:00,90.0,49.0,30.16,SW,221,6.0,12.0,25,0.00,,,0.00,,2013-08-02 00:52:00,
2013-08-01 20:00:00,89.0,49.0,30.16,ESE,117,3.0,11.0,25,0.00,,,0.00,,2013-08-02 01:00:00,
2013-08-01 20:16:00,89.0,49.0,30.16,ESE,117,3.0,11.0,25,0.00,,,0.00,,2013-08-02 01:16:00,
2013-08-01 20:26:00,86.0,49.0,30.17,East,96,6.0,12.0,28,0.00,,,0.00,,2013-08-02 01:26:00,
2013-08-01 20:35:00,86.0,49.0,30.17,East,96,6.0,12.0,28,0.00,,,0.00,,2013-08-02 01:35:00,
2013-08-01 20:48:00,86.0,49.0,30.17,East,96,6.0,12.0,28,0.00,,,0.00,,2013-08-02 01:48:00,
2013-08-01 20:59:00,84.0,49.0,30.18,ESE,114,6.0,9.0,30,0.00,,,0.00,,2013-08-02 01:59:00,
2013-08-01 21:05:00,84.0,49.0,30.18,ESE,114,6.0,9.0,30,0.00,,,0.00,,2013-08-02 02:05:00,
2013-08-01 21:15:00,84.0,49.0,30.18,ESE,114,6.0,9.0,30,0.00,,,0.00,,2013-08-02 02:15:00,
2013-08-01 21:26:00,81.0,48.0,30.18,ESE,117,4.0,9.0,32,0.00,,,0.00,,2013-08-02 02:26:00,
2013-08-01 21:34:00,81.0,48.0,30.18,ESE,117,4.0,9.0,32,0.00,,,0.00,,2013-08-02 02:34:00,
2013-08-01 21:45:00,81.0,48.0,30.18,ESE,117,4.0,9.0,32,0.00,,,0.00,,2013-08-02 02:45:00,
2013-08-01 21:53:00,80.0,49.0,30.19,ESE,120,3.0,10.0,34,0.00,,,0.00,,2013-08-02 02:53:00,
2013-08-01 22:12:00,80.0,49.0,30.19,ESE,120,3.0,10.0,34,0.00,,,0.00,,2013-08-02 03:12:00,
2013-08-01 22:23:00,79.0,49.0,30.19,ESE,105,3.0,8.0,35,0.00,,,0.00,,2013-08-02 03:23:00,
2013-08-01 22:35:00,79.0,49.0,30.19,ESE,105,3.0,8.0,35,0.00,,,0.00,,2013-08-02 03:35:00,
2013-08-01 22:59:00,78.0,49.0,30.21,NNE,14,0.0,3.0,36,0.00,,,0.00,,2013-08-02 03:59:00,
2013-08-01 23:02:00,78.0,49.0,30.21,NNE,14,0.0,3.0,36,0.00,,,0.00,,2013-08-02 04:02:00,
2013-08-01 23:12:00,78.0,49.0,30.21,NNE,14,0.0,3.0,36,0.00,,,0.00,,2013-08-02 04:12:00,
2013-08-01 23:22:00,77.0,48.0,30.21,NE,48,1.0,3.0,36,0.00,,,0.00,,2013-08-02 04:22:00,
2013-08-01 23:33:00,77.0,48.0,30.21,NE,48,1.0,3.0,36,0.00,,,0.00,,2013-08-02 04:33:00,
2013-08-01 23:43:00,77.0,48.0,30.21,NE,48,1.0,3.0,36,0.00,,,0.00,,2013-08-02 04:43:00,
2013-08-01 23:53:00,76.0,48.0,30.22,ENE,61,0.0,4.0,37,0.00,,,0.00,,2013-08-02 04:53:00,